Time,TemperatureF,DewpointF,PressureIn,WindDirection,WindDirectionDegrees,WindSpeedMPH,WindSpeedGustMPH,Humidity,HourlyPrecipIn,Conditions,Clouds,dailyrainin,SoftwareType,DateUTC
2013-05-19 00:00:00,47.6,45.4,30.31,South,183,0.0,0.0,92,0.00,,,0.00,Wunderground v.1.15,2013-05-19 04:00:00,
2013-05-19 00:05:00,47.6,45.4,30.32,South,177,0.0,0.0,92,0.00,,,0.00,Wunderground v.1.15,2013-05-19 04:05:00,
2013-05-19 00:10:00,47.6,45.4,30.32,South,177,0.0,0.0,92,0.00,,,0.00,Wunderground v.1.15,2013-05-19 04:10:00,
2013-05-19 00:20:00,47.6,45.4,30.31,South,177,0.0,0.0,92,0.00,,,0.00,Wunderground v.1.15,2013-05-19 04:20:00,
2013-05-19 00:25:00,47.6,45.4,30.31,South,177,0.0,0.0,92,0.00,,,0.00,Wunderground v.1.15,2013-05-19 04:25:00,
2013-05-19 00:30:00,47.5,45.3,30.30,South,177,0.0,0.0,92,0.00,,,0.00,Wunderground v.1.15,2013-05-19 04:30:00,
2013-05-19 00:35:00,47.5,45.3,30.31,South,177,0.0,0.0,92,0.00,,,0.00,Wunderground v.1.15,2013-05-19 04:35:00,
2013-05-19 00:40:00,47.4,45.2,30.31,South,177,0.0,0.0,92,0.00,,,0.00,Wunderground v.1.15,2013-05-19 04:40:00,
2013-05-19 00:45:00,47.4,45.2,30.31,South,177,0.0,0.0,92,0.00,,,0.00,Wunderground v.1.15,2013-05-19 04:45:00,
2013-05-19 00:50:00,47.3,45.1,30.31,South,177,0.0,0.0,92,0.00,,,0.00,Wunderground v.1.15,2013-05-19 04:50:00,
2013-05-19 00:55:00,47.3,45.1,30.31,South,177,0.0,0.0,92,0.00,,,0.00,Wunderground v.1.15,2013-05-19 04:55:00,
2013-05-19 01:00:00,47.2,45.0,30.31,South,177,0.0,0.0,92,0.00,,,0.00,Wunderground v.1.15,2013-05-19 05:00:00,
2013-05-19 01:05:00,47.2,45.0,30.31,South,177,0.0,1.0,92,0.00,,,0.00,Wunderground v.1.15,2013-05-19 05:05:00,
2013-05-19 01:10:00,47.1,44.9,30.31,South,177,0.0,1.0,92,0.00,,,0.00,Wunderground v.1.15,2013-05-19 05:10:00,
2013-05-19 01:15:00,47.1,44.9,30.31,South,177,0.0,1.0,92,0.00,,,0.00,Wunderground v.1.15,2013-05-19 05:15:00,
2013-05-19 01:25:00,46.9,44.7,30.31,South,177,0.0,1.0,92,0.00,,,0.00,Wunderground v.1.15,2013-05-19 05:25:00,
2013-05-19 01:30:00,46.9,44.7,30.31,South,177,0.0,0.0,92,0.00,,,0.00,Wunderground v.1.15,2013-05-19 05:30:00,
2013-05-19 01:35:00,46.8,44.6,30.31,South,177,0.0,0.0,92,0.00,,,0.00,Wunderground v.1.15,2013-05-19 05:35:00,
2013-05-19 01:40:00,46.7,44.5,30.31,South,177,0.0,0.0,92,0.00,,,0.00,Wunderground v.1.15,2013-05-19 05:40:00,
2013-05-19 01:45:00,46.6,44.4,30.32,South,177,0.0,0.0,92,0.00,,,0.00,Wunderground v.1.15,2013-05-19 05:45:00,
2013-05-19 01:55:00,46.3,44.1,30.31,South,178,0.0,0.0,92,0.00,,,0.00,Wunderground v.1.15,2013-05-19 05:55:00,
2013-05-19 02:00:00,46.2,44.0,30.32,South,177,0.0,0.0,92,0.00,,,0.00,Wunderground v.1.15,2013-05-19 06:00:00,
2013-05-19 02:05:00,46.2,44.3,30.31,South,177,0.0,0.0,93,0.00,,,0.00,Wunderground v.1.15,2013-05-19 06:05:00,
2013-05-19 02:10:00,46.3,44.4,30.31,South,178,0.0,0.0,93,0.00,,,0.00,Wunderground v.1.15,2013-05-19 06:10:00,
2013-05-19 02:15:00,46.4,44.5,30.30,South,177,0.0,0.0,93,0.00,,,0.00,Wunderground v.1.15,2013-05-19 06:15:00,
2013-05-19 02:20:00,46.5,44.6,30.30,South,177,0.0,0.0,93,0.00,,,0.00,Wunderground v.1.15,2013-05-19 06:20:00,
2013-05-19 02:25:00,46.7,44.8,30.30,South,177,0.0,0.0,93,0.00,,,0.00,Wunderground v.1.15,2013-05-19 06:25:00,
2013-05-19 02:30:00,46.8,44.9,30.30,South,177,0.0,0.0,93,0.00,,,0.00,Wunderground v.1.15,2013-05-19 06:30:00,
2013-05-19 02:35:00,46.8,44.9,30.30,South,177,0.0,0.0,93,0.00,,,0.00,Wunderground v.1.15,2013-05-19 06:35:00,
2013-05-19 02:40:00,46.7,44.8,30.31,South,177,0.0,0.0,93,0.00,,,0.00,Wunderground v.1.15,2013-05-19 06:40:00,
2013-05-19 02:45:00,46.7,44.8,30.31,South,177,0.0,0.0,93,0.00,,,0.00,Wunderground v.1.15,2013-05-19 06:45:00,
2013-05-19 02:50:00,46.8,44.9,30.31,South,177,0.0,0.0,93,0.00,,,0.00,Wunderground v.1.15,2013-05-19 06:50:00,
2013-05-19 03:00:00,47.0,45.1,30.31,South,177,0.0,0.0,93,0.00,,,0.00,Wunderground v.1.15,2013-05-19 07:00:00,
2013-05-19 03:05:00,47.1,45.2,30.30,South,177,0.0,0.0,93,0.00,,,0.00,Wunderground v.1.15,2013-05-19 07:05:00,
2013-05-19 03:10:00,47.2,45.3,30.30,South,177,0.0,0.0,93,0.00,,,0.00,Wunderground v.1.15,2013-05-19 07:10:00,
2013-05-19 03:15:00,47.4,45.5,30.31,South,177,0.0,0.0,93,0.00,,,0.00,Wunderground v.1.15,2013-05-19 07:15:00,
2013-05-19 03:20:00,47.5,45.6,30.31,South,177,0.0,0.0,93,0.00,,,0.00,Wunderground v.1.15,2013-05-19 07:20:00,
2013-05-19 03:25:00,47.5,45.6,30.31,South,177,0.0,0.0,93,0.00,,,0.00,Wunderground v.1.15,2013-05-19 07:25:00,
2013-05-19 03:35:00,47.7,45.8,30.31,South,177,0.0,0.0,93,0.00,,,0.00,Wunderground v.1.15,2013-05-19 07:35:00,
2013-05-19 03:40:00,47.8,45.6,30.31,South,177,0.0,0.0,92,0.00,,,0.00,Wunderground v.1.15,2013-05-19 07:40:00,
2013-05-19 03:45:00,47.8,45.6,30.31,South,177,0.0,0.0,92,0.00,,,0.00,Wunderground v.1.15,2013-05-19 07:45:00,
2013-05-19 03:50:00,47.9,45.7,30.31,South,177,0.0,0.0,92,0.00,,,0.00,Wunderground v.1.15,2013-05-19 07:50:00,
2013-05-19 03:55:00,47.9,45.7,30.30,South,177,0.0,0.0,92,0.00,,,0.00,Wunderground v.1.15,2013-05-19 07:55:00,
2013-05-19 04:05:00,48.0,45.8,30.30,South,177,0.0,0.0,92,0.00,,,0.00,Wunderground v.1.15,2013-05-19 08:05:00,
2013-05-19 04:10:00,48.0,45.5,30.30,South,177,0.0,0.0,91,0.00,,,0.00,Wunderground v.1.15,2013-05-19 08:10:00,
2013-05-19 04:15:00,48.1,45.6,30.30,South,177,0.0,0.0,91,0.00,,,0.00,Wunderground v.1.15,2013-05-19 08:15:00,
2013-05-19 04:20:00,48.1,45.6,30.31,South,178,0.0,0.0,91,0.00,,,0.00,Wunderground v.1.15,2013-05-19 08:20:00,
2013-05-19 04:25:00,48.1,45.6,30.31,South,178,0.0,0.0,91,0.00,,,0.00,Wunderground v.1.15,2013-05-19 08:25:00,
2013-05-19 04:30:00,48.1,45.6,30.31,South,177,0.0,0.0,91,0.00,,,0.00,Wunderground v.1.15,2013-05-19 08:30:00,
2013-05-19 04:40:00,48.2,45.7,30.31,South,177,0.0,0.0,91,0.00,,,0.00,Wunderground v.1.15,2013-05-19 08:40:00,
2013-05-19 04:45:00,48.2,45.7,30.31,South,177,0.0,0.0,91,0.00,,,0.00,Wunderground v.1.15,2013-05-19 08:45:00,
2013-05-19 04:50:00,48.3,45.5,30.31,South,177,0.0,0.0,90,0.00,,,0.00,Wunderground v.1.15,2013-05-19 08:50:00,
2013-05-19 04:55:00,48.3,45.5,30.31,South,177,0.0,0.0,90,0.00,,,0.00,Wunderground v.1.15,2013-05-19 08:55:00,
2013-05-19 05:00:00,48.3,45.5,30.31,South,177,0.0,0.0,90,0.00,,,0.00,Wunderground v.1.15,2013-05-19 09:00:00,
2013-05-19 05:10:00,48.3,45.5,30.32,South,177,0.0,0.0,90,0.00,,,0.00,Wunderground v.1.15,2013-05-19 09:10:00,
2013-05-19 05:15:00,48.3,45.5,30.32,South,177,0.0,0.0,90,0.00,,,0.00,Wunderground v.1.15,2013-05-19 09:15:00,
2013-05-19 05:20:00,48.4,45.6,30.32,South,177,0.0,0.0,90,0.00,,,0.00,Wunderground v.1.15,2013-05-19 09:20:00,
2013-05-19 05:25:00,48.3,45.2,30.33,South,177,0.0,0.0,89,0.00,,,0.00,Wunderground v.1.15,2013-05-19 09:25:00,
2013-05-19 05:30:00,48.3,45.2,30.33,South,177,0.0,0.0,89,0.00,,,0.00,Wunderground v.1.15,2013-05-19 09:30:00,
2013-05-19 05:35:00,48.4,45.3,30.33,South,177,0.0,0.0,89,0.00,,,0.00,Wunderground v.1.15,2013-05-19 09:35:00,
2013-05-19 05:45:00,48.5,45.1,30.33,South,177,0.0,0.0,88,0.00,,,0.00,Wunderground v.1.15,2013-05-19 09:45:00,
2013-05-19 05:50:00,48.5,45.1,30.33,South,177,0.0,0.0,88,0.00,,,0.00,Wunderground v.1.15,2013-05-19 09:50:00,
2013-05-19 05:55:00,48.5,45.1,30.33,South,177,0.0,0.0,88,0.00,,,0.00,Wunderground v.1.15,2013-05-19 09:55:00,
2013-05-19 06:00:00,48.6,45.2,30.33,South,177,0.0,0.0,88,0.00,,,0.00,Wunderground v.1.15,2013-05-19 10:00:00,
2013-05-19 06:05:00,48.6,45.2,30.33,South,176,0.0,0.0,88,0.00,,,0.00,Wunderground v.1.15,2013-05-19 10:05:00,
2013-05-19 06:15:00,48.7,45.3,30.34,South,177,0.0,0.0,88,0.00,,,0.00,Wunderground v.1.15,2013-05-19 10:15:00,
2013-05-19 06:20:00,48.8,45.4,30.34,South,177,0.0,0.0,88,0.00,,,0.00,Wunderground v.1.15,2013-05-19 10:20:00,
2013-05-19 06:25:00,48.9,45.5,30.34,South,177,0.0,0.0,88,0.00,,,0.00,Wunderground v.1.15,2013-05-19 10:25:00,
2013-05-19 06:30:00,48.9,45.5,30.34,South,177,0.0,0.0,88,0.00,,,0.00,Wunderground v.1.15,2013-05-19 10:30:00,
2013-05-19 06:35:00,48.9,45.5,30.34,South,177,0.0,0.0,88,0.00,,,0.00,Wunderground v.1.15,2013-05-19 10:35:00,
2013-05-19 06:40:00,49.0,45.3,30.34,South,188,0.0,0.0,87,0.00,,,0.00,Wunderground v.1.15,2013-05-19 10:40:00,
2013-05-19 06:50:00,49.1,45.4,30.34,South,180,0.0,0.0,87,0.00,,,0.00,Wunderground v.1.15,2013-05-19 10:50:00,
2013-05-19 06:55:00,49.2,45.5,30.33,South,181,0.0,0.0,87,0.00,,,0.00,Wunderground v.1.15,2013-05-19 10:55:00,
2013-05-19 07:00:00,49.3,45.6,30.33,South,181,0.0,0.0,87,0.00,,,0.00,Wunderground v.1.15,2013-05-19 11:00:00,
2013-05-19 07:05:00,49.4,45.4,30.33,East,89,0.0,0.0,86,0.00,,,0.00,Wunderground v.1.15,2013-05-19 11:05:00,
2013-05-19 07:10:00,49.5,45.5,30.33,East,89,0.0,0.0,86,0.00,,,0.00,Wunderground v.1.15,2013-05-19 11:10:00,
2013-05-19 07:20:00,49.6,45.3,30.34,East,88,0.0,0.0,85,0.00,,,0.00,Wunderground v.1.15,2013-05-19 11:20:00,
2013-05-19 07:25:00,49.8,45.2,30.34,East,88,0.0,0.0,84,0.00,,,0.00,Wunderground v.1.15,2013-05-19 11:25:00,
2013-05-19 07:30:00,49.9,45.3,30.34,East,88,0.0,0.0,84,0.00,,,0.00,Wunderground v.1.15,2013-05-19 11:30:00,
2013-05-19 07:35:00,50.1,45.5,30.34,ESE,108,0.0,0.0,84,0.00,,,0.00,Wunderground v.1.15,2013-05-19 11:35:00,
2013-05-19 07:40:00,50.2,45.6,30.34,NE,41,0.0,0.0,84,0.00,,,0.00,Wunderground v.1.15,2013-05-19 11:40:00,
2013-05-19 07:45:00,50.3,45.6,30.34,NE,41,0.0,0.0,84,0.00,,,0.00,Wunderground v.1.15,2013-05-19 11:45:00,
2013-05-19 07:55:00,50.6,45.3,30.34,NE,35,0.0,0.0,82,0.00,,,0.00,Wunderground v.1.15,2013-05-19 11:55:00,
2013-05-19 08:00:00,50.7,45.4,30.34,NE,43,0.0,0.0,82,0.00,,,0.00,Wunderground v.1.15,2013-05-19 12:00:00,
2013-05-19 08:05:00,50.9,45.3,30.34,NE,53,0.0,3.0,81,0.00,,,0.00,Wunderground v.1.15,2013-05-19 12:05:00,
2013-05-19 08:10:00,51.0,45.4,30.34,SSE,158,0.0,3.0,81,0.00,,,0.00,Wunderground v.1.15,2013-05-19 12:10:00,
2013-05-19 08:15:00,51.1,45.5,30.34,WSW,242,0.0,3.0,81,0.00,,,0.00,Wunderground v.1.15,2013-05-19 12:15:00,
2013-05-19 08:25:00,51.6,45.6,30.34,South,169,0.0,3.0,80,0.00,,,0.00,Wunderground v.1.15,2013-05-19 12:25:00,
2013-05-19 08:30:00,51.7,45.7,30.35,South,181,0.0,0.0,80,0.00,,,0.00,Wunderground v.1.15,2013-05-19 12:30:00,
2013-05-19 08:35:00,52.0,46.0,30.35,SW,217,0.0,1.0,80,0.00,,,0.00,Wunderground v.1.15,2013-05-19 12:35:00,
2013-05-19 08:40:00,52.1,45.8,30.35,West,269,0.0,0.0,79,0.00,,,0.00,Wunderground v.1.15,2013-05-19 12:40:00,
2013-05-19 08:45:00,52.1,45.8,30.35,ESE,117,0.0,0.0,79,0.00,,,0.00,Wunderground v.1.15,2013-05-19 12:45:00,
2013-05-19 08:50:00,52.3,46.3,30.35,West,270,0.0,0.0,80,0.00,,,0.00,Wunderground v.1.15,2013-05-19 12:50:00,
2013-05-19 09:00:00,52.6,45.9,30.35,West,271,0.0,1.0,78,0.00,,,0.00,Wunderground v.1.15,2013-05-19 13:00:00,
2013-05-19 09:05:00,52.4,45.7,30.35,SW,218,0.0,2.0,78,0.00,,,0.00,Wunderground v.1.15,2013-05-19 13:05:00,
2013-05-19 09:10:00,52.3,45.6,30.35,South,176,0.0,2.0,78,0.00,,,0.00,Wunderground v.1.15,2013-05-19 13:10:00,
2013-05-19 09:15:00,52.4,46.1,30.35,ENE,58,0.0,2.0,79,0.00,,,0.00,Wunderground v.1.15,2013-05-19 13:15:00,
2013-05-19 09:20:00,52.6,46.3,30.36,SSW,207,0.0,2.0,79,0.00,,,0.00,Wunderground v.1.15,2013-05-19 13:20:00,
2013-05-19 09:30:00,53.2,46.9,30.36,ENE,76,0.0,0.0,79,0.00,,,0.00,Wunderground v.1.15,2013-05-19 13:30:00,
2013-05-19 09:35:00,53.6,46.9,30.35,ENE,65,0.0,0.0,78,0.00,,,0.00,Wunderground v.1.15,2013-05-19 13:35:00,
2013-05-19 09:40:00,53.7,46.7,30.35,ESE,120,0.0,0.0,77,0.00,,,0.00,Wunderground v.1.15,2013-05-19 13:40:00,
2013-05-19 09:45:00,54.0,46.6,30.36,ESE,115,0.0,0.0,76,0.00,,,0.00,Wunderground v.1.15,2013-05-19 13:45:00,
2013-05-19 09:50:00,54.3,46.5,30.35,SE,136,0.0,1.0,75,0.00,,,0.00,Wunderground v.1.15,2013-05-19 13:50:00,
2013-05-19 09:55:00,54.3,46.5,30.36,West,260,1.0,1.0,75,0.00,,,0.00,Wunderground v.1.15,2013-05-19 13:55:00,
2013-05-19 10:05:00,54.0,46.3,30.36,WSW,239,0.0,2.0,75,0.00,,,0.00,Wunderground v.1.15,2013-05-19 14:05:00,
2013-05-19 10:10:00,54.2,46.4,30.36,SSW,203,0.0,2.0,75,0.00,,,0.00,Wunderground v.1.15,2013-05-19 14:10:00,
2013-05-19 10:15:00,54.4,46.3,30.36,North,8,0.0,2.0,74,0.00,,,0.00,Wunderground v.1.15,2013-05-19 14:15:00,
2013-05-19 10:20:00,54.6,46.8,30.36,SW,229,0.0,2.0,75,0.00,,,0.00,Wunderground v.1.15,2013-05-19 14:20:00,
2013-05-19 10:30:00,54.8,47.0,30.36,WSW,239,0.0,1.0,75,0.00,,,0.00,Wunderground v.1.15,2013-05-19 14:30:00,
2013-05-19 10:40:00,55.1,47.0,30.36,SSE,155,1.0,1.0,74,0.00,,,0.00,Wunderground v.1.15,2013-05-19 14:40:00,
2013-05-19 10:45:00,55.4,46.9,30.36,East,89,1.0,1.0,73,0.00,,,0.00,Wunderground v.1.15,2013-05-19 14:45:00,
2013-05-19 10:50:00,55.5,47.0,30.36,West,264,0.0,0.0,73,0.00,,,0.00,Wunderground v.1.15,2013-05-19 14:50:00,
2013-05-19 10:55:00,55.8,47.6,30.36,SE,135,0.0,1.0,74,0.00,,,0.00,Wunderground v.1.15,2013-05-19 14:55:00,
2013-05-19 11:00:00,56.3,47.4,30.36,NE,56,0.0,0.0,72,0.00,,,0.00,Wunderground v.1.15,2013-05-19 15:00:00,
2013-05-19 11:05:00,56.4,47.5,30.36,SSW,193,0.0,1.0,72,0.00,,,0.00,Wunderground v.1.15,2013-05-19 15:05:00,
2013-05-19 11:10:00,56.7,47.8,30.36,ENE,58,0.0,2.0,72,0.00,,,0.00,Wunderground v.1.15,2013-05-19 15:10:00,
2013-05-19 11:20:00,56.9,47.6,30.36,North,9,1.0,2.0,71,0.00,,,0.00,Wunderground v.1.15,2013-05-19 15:20:00,
2013-05-19 11:25:00,56.8,47.5,30.36,ENE,62,1.0,2.0,71,0.00,,,0.00,Wunderground v.1.15,2013-05-19 15:25:00,
2013-05-19 11:30:00,56.3,47.0,30.36,West,269,1.0,1.0,71,0.00,,,0.00,Wunderground v.1.15,2013-05-19 15:30:00,
2013-05-19 11:35:00,56.2,47.3,30.36,West,274,1.0,1.0,72,0.00,,,0.00,Wunderground v.1.15,2013-05-19 15:35:00,
2013-05-19 11:45:00,56.9,47.6,30.35,South,169,1.0,1.0,71,0.00,,,0.00,Wunderground v.1.15,2013-05-19 15:45:00,
2013-05-19 11:50:00,56.9,47.2,30.36,ENE,72,1.0,1.0,70,0.00,,,0.00,Wunderground v.1.15,2013-05-19 15:50:00,
2013-05-19 11:55:00,57.1,47.8,30.36,West,263,1.0,1.0,71,0.00,,,0.00,Wunderground v.1.15,2013-05-19 15:55:00,
2013-05-19 12:00:00,57.3,47.6,30.36,ENE,59,1.0,1.0,70,0.00,,,0.00,Wunderground v.1.15,2013-05-19 16:00:00,
2013-05-19 12:10:00,57.7,48.4,30.35,ENE,77,1.0,1.0,71,0.00,,,0.00,Wunderground v.1.15,2013-05-19 16:10:00,
2013-05-19 12:15:00,57.9,47.8,30.35,ENE,57,0.0,3.0,69,0.00,,,0.00,Wunderground v.1.15,2013-05-19 16:15:00,
2013-05-19 12:20:00,57.6,47.5,30.35,East,87,0.0,3.0,69,0.00,,,0.00,Wunderground v.1.15,2013-05-19 16:20:00,
2013-05-19 12:25:00,58.0,48.3,30.35,NE,56,1.0,3.0,70,0.00,,,0.00,Wunderground v.1.15,2013-05-19 16:25:00,
2013-05-19 12:30:00,58.5,48.4,30.35,SSW,196,0.0,1.0,69,0.00,,,0.00,Wunderground v.1.15,2013-05-19 16:30:00,
2013-05-19 12:35:00,58.3,48.6,30.35,ESE,103,0.0,1.0,70,0.00,,,0.00,Wunderground v.1.15,2013-05-19 16:35:00,
2013-05-19 12:40:00,58.5,48.0,30.35,SE,135,0.0,0.0,68,0.00,,,0.00,Wunderground v.1.15,2013-05-19 16:40:00,
2013-05-19 12:50:00,58.0,47.5,30.35,West,269,1.0,1.0,68,0.00,,,0.00,Wunderground v.1.15,2013-05-19 16:50:00,
2013-05-19 12:55:00,58.0,48.3,30.35,ENE,65,1.0,2.0,70,0.00,,,0.00,Wunderground v.1.15,2013-05-19 16:55:00,
2013-05-19 13:00:00,58.1,48.4,30.35,ENE,62,1.0,2.0,70,0.00,,,0.00,Wunderground v.1.15,2013-05-19 17:00:00,
2013-05-19 13:05:00,58.0,47.9,30.34,West,275,1.0,3.0,69,0.00,,,0.00,Wunderground v.1.15,2013-05-19 17:05:00,
2013-05-19 13:10:00,58.2,48.1,30.34,WNW,295,1.0,3.0,69,0.00,,,0.00,Wunderground v.1.15,2013-05-19 17:10:00,
2013-05-19 13:15:00,57.9,48.2,30.34,West,281,1.0,3.0,70,0.00,,,0.00,Wunderground v.1.15,2013-05-19 17:15:00,
2013-05-19 13:25:00,57.6,47.9,30.34,WSW,246,1.0,1.0,70,0.00,,,0.00,Wunderground v.1.15,2013-05-19 17:25:00,
2013-05-19 13:30:00,57.5,47.8,30.34,West,277,1.0,2.0,70,0.00,,,0.00,Wunderground v.1.15,2013-05-19 17:30:00,
2013-05-19 13:35:00,57.3,48.7,30.34,SSE,150,1.0,2.0,73,0.00,,,0.00,Wunderground v.1.15,2013-05-19 17:35:00,
2013-05-19 13:40:00,57.6,48.3,30.34,ENE,72,1.0,1.0,71,0.00,,,0.00,Wunderground v.1.15,2013-05-19 17:40:00,
2013-05-19 13:45:00,57.7,48.4,30.33,East,92,1.0,1.0,71,0.00,,,0.00,Wunderground v.1.15,2013-05-19 17:45:00,
2013-05-19 13:55:00,57.3,48.0,30.33,NE,34,1.0,1.0,71,0.00,,,0.00,Wunderground v.1.15,2013-05-19 17:55:00,
2013-05-19 14:00:00,57.3,48.0,30.32,ESE,108,1.0,1.0,71,0.00,,,0.00,Wunderground v.1.15,2013-05-19 18:00:00,
2013-05-19 14:05:00,57.3,47.6,30.33,WNW,282,1.0,3.0,70,0.00,,,0.00,Wunderground v.1.15,2013-05-19 18:05:00,
2013-05-19 14:10:00,56.9,48.0,30.32,NE,44,1.0,3.0,72,0.00,,,0.00,Wunderground v.1.15,2013-05-19 18:10:00,
2013-05-19 14:15:00,57.4,47.3,30.32,NE,52,1.0,3.0,69,0.00,,,0.00,Wunderground v.1.15,2013-05-19 18:15:00,
2013-05-19 14:20:00,56.8,47.5,30.32,West,260,1.0,3.0,71,0.00,,,0.00,Wunderground v.1.15,2013-05-19 18:20:00,
2013-05-19 14:25:00,56.5,47.2,30.32,NNE,13,1.0,3.0,71,0.00,,,0.00,Wunderground v.1.15,2013-05-19 18:25:00,
2013-05-19 14:30:00,55.9,47.0,30.32,NNW,335,1.0,1.0,72,0.00,,,0.00,Wunderground v.1.15,2013-05-19 18:30:00,
2013-05-19 14:35:00,56.0,47.8,30.32,SSE,167,1.0,1.0,74,0.00,,,0.00,Wunderground v.1.15,2013-05-19 18:35:00,
2013-05-19 14:40:00,56.2,47.7,30.31,WSW,253,0.0,0.0,73,0.00,,,0.00,Wunderground v.1.15,2013-05-19 18:40:00,
2013-05-19 14:45:00,56.6,48.0,30.31,NW,304,0.0,0.0,73,0.00,,,0.00,Wunderground v.1.15,2013-05-19 18:45:00,
2013-05-19 14:50:00,56.5,47.6,30.31,East,83,0.0,0.0,72,0.00,,,0.00,Wunderground v.1.15,2013-05-19 18:50:00,
2013-05-19 15:00:00,56.3,47.8,30.31,ENE,76,0.0,1.0,73,0.00,,,0.00,Wunderground v.1.15,2013-05-19 19:00:00,
2013-05-19 15:05:00,55.7,47.5,30.30,West,259,0.0,4.0,74,0.00,,,0.00,Wunderground v.1.15,2013-05-19 19:05:00,
2013-05-19 15:10:00,55.3,47.5,30.31,East,95,0.0,4.0,75,0.00,,,0.00,Wunderground v.1.15,2013-05-19 19:10:00,
2013-05-19 15:15:00,54.9,47.5,30.31,ENE,76,0.0,4.0,76,0.00,,,0.00,Wunderground v.1.15,2013-05-19 19:15:00,
2013-05-19 15:20:00,54.8,47.7,30.30,East,89,0.0,4.0,77,0.00,,,0.00,Wunderground v.1.15,2013-05-19 19:20:00,
2013-05-19 15:25:00,54.5,47.4,30.30,ESE,118,0.0,4.0,77,0.00,,,0.00,Wunderground v.1.15,2013-05-19 19:25:00,
2013-05-19 15:35:00,54.4,47.7,30.31,East,89,0.0,0.0,78,0.00,,,0.00,Wunderground v.1.15,2013-05-19 19:35:00,
2013-05-19 15:40:00,54.6,48.2,30.31,South,187,0.0,0.0,79,0.00,,,0.00,Wunderground v.1.15,2013-05-19 19:40:00,
2013-05-19 15:45:00,54.5,48.1,30.31,ENE,65,0.0,0.0,79,0.00,,,0.00,Wunderground v.1.15,2013-05-19 19:45:00,
2013-05-19 15:50:00,53.9,47.9,30.31,East,86,0.0,0.0,80,0.00,,,0.00,Wunderground v.1.15,2013-05-19 19:50:00,
2013-05-19 15:55:00,53.6,47.9,30.31,East,82,0.0,0.0,81,0.00,,,0.00,Wunderground v.1.15,2013-05-19 19:55:00,
2013-05-19 16:05:00,53.0,47.7,30.30,ENE,57,0.0,3.0,82,0.00,,,0.00,Wunderground v.1.15,2013-05-19 20:05:00,
2013-05-19 16:10:00,52.9,47.9,30.30,ENE,61,0.0,3.0,83,0.00,,,0.00,Wunderground v.1.15,2013-05-19 20:10:00,
2013-05-19 16:15:00,52.5,47.8,30.30,NE,43,0.0,3.0,84,0.00,,,0.00,Wunderground v.1.15,2013-05-19 20:15:00,
2013-05-19 16:20:00,52.3,47.6,30.30,ENE,63,0.0,3.0,84,0.00,,,0.00,Wunderground v.1.15,2013-05-19 20:20:00,
2013-05-19 16:25:00,52.4,47.7,30.30,North,11,0.0,3.0,84,0.00,,,0.00,Wunderground v.1.15,2013-05-19 20:25:00,
2013-05-19 16:30:00,52.2,47.5,30.30,ENE,66,0.0,0.0,84,0.00,,,0.00,Wunderground v.1.15,2013-05-19 20:30:00,
2013-05-19 16:40:00,52.2,47.8,30.30,ENE,72,0.0,0.0,85,0.00,,,0.00,Wunderground v.1.15,2013-05-19 20:40:00,
2013-05-19 16:45:00,52.3,47.6,30.30,SSE,165,0.0,0.0,84,0.00,,,0.00,Wunderground v.1.15,2013-05-19 20:45:00,
2013-05-19 16:50:00,52.4,47.7,30.30,NE,41,0.0,0.0,84,0.00,,,0.00,Wunderground v.1.15,2013-05-19 20:50:00,
2013-05-19 16:55:00,52.6,47.9,30.29,NE,46,0.0,1.0,84,0.00,,,0.00,Wunderground v.1.15,2013-05-19 20:55:00,
2013-05-19 17:00:00,52.4,47.7,30.29,NE,39,0.0,2.0,84,0.00,,,0.00,Wunderground v.1.15,2013-05-19 21:00:00,
2013-05-19 17:10:00,52.9,48.2,30.29,East,79,0.0,2.0,84,0.00,,,0.00,Wunderground v.1.15,2013-05-19 21:10:00,
2013-05-19 17:15:00,52.6,47.9,30.29,NE,34,0.0,2.0,84,0.00,,,0.00,Wunderground v.1.15,2013-05-19 21:15:00,
2013-05-19 17:20:00,52.3,47.9,30.29,NNE,31,0.0,2.0,85,0.00,,,0.00,Wunderground v.1.15,2013-05-19 21:20:00,
2013-05-19 17:25:00,52.2,48.1,30.29,East,85,0.0,2.0,86,0.00,,,0.00,Wunderground v.1.15,2013-05-19 21:25:00,
2013-05-19 17:30:00,52.0,47.9,30.29,East,90,0.0,0.0,86,0.00,,,0.00,Wunderground v.1.15,2013-05-19 21:30:00,
2013-05-19 17:35:00,51.8,48.1,30.28,NNE,23,0.0,0.0,87,0.00,,,0.00,Wunderground v.1.15,2013-05-19 21:35:00,
2013-05-19 17:45:00,51.6,47.9,30.28,East,96,0.0,0.0,87,0.00,,,0.00,Wunderground v.1.15,2013-05-19 21:45:00,
2013-05-19 17:50:00,51.5,48.1,30.28,ESE,103,0.0,1.0,88,0.00,,,0.00,Wunderground v.1.15,2013-05-19 21:50:00,
2013-05-19 17:55:00,51.4,48.0,30.28,East,98,0.0,1.0,88,0.00,,,0.00,Wunderground v.1.15,2013-05-19 21:55:00,
2013-05-19 18:00:00,51.3,47.9,30.28,SE,142,0.0,0.0,88,0.00,,,0.00,Wunderground v.1.15,2013-05-19 22:00:00,
2013-05-19 18:05:00,51.2,47.8,30.28,SE,143,0.0,3.0,88,0.00,,,0.00,Wunderground v.1.15,2013-05-19 22:05:00,
2013-05-19 18:15:00,51.0,47.9,30.28,SE,137,0.0,3.0,89,0.00,,,0.00,Wunderground v.1.15,2013-05-19 22:15:00,
2013-05-19 18:20:00,50.9,47.8,30.28,SSE,154,0.0,3.0,89,0.00,,,0.00,Wunderground v.1.15,2013-05-19 22:20:00,
2013-05-19 18:25:00,50.8,47.7,30.28,SE,141,0.0,3.0,89,0.00,,,0.00,Wunderground v.1.15,2013-05-19 22:25:00,
2013-05-19 18:30:00,50.8,48.0,30.28,East,94,0.0,1.0,90,0.00,,,0.00,Wunderground v.1.15,2013-05-19 22:30:00,
2013-05-19 18:35:00,50.7,47.9,30.28,North,357,0.0,1.0,90,0.00,,,0.00,Wunderground v.1.15,2013-05-19 22:35:00,
2013-05-19 18:40:00,50.5,47.7,30.28,NW,325,0.0,0.0,90,0.00,,,0.00,Wunderground v.1.15,2013-05-19 22:40:00,
2013-05-19 18:50:00,50.5,48.0,30.28,South,186,0.0,0.0,91,0.00,,,0.00,Wunderground v.1.15,2013-05-19 22:50:00,
2013-05-19 18:55:00,50.3,47.8,30.28,ENE,60,0.0,0.0,91,0.00,,,0.00,Wunderground v.1.15,2013-05-19 22:55:00,
2013-05-19 19:00:00,50.3,47.8,30.28,ESE,105,0.0,0.0,91,0.00,,,0.00,Wunderground v.1.15,2013-05-19 23:00:00,
2013-05-19 19:05:00,50.1,47.9,30.27,NE,46,0.0,2.0,92,0.00,,,0.00,Wunderground v.1.15,2013-05-19 23:05:00,
2013-05-19 19:10:00,50.0,47.8,30.28,ENE,60,0.0,2.0,92,0.00,,,0.00,Wunderground v.1.15,2013-05-19 23:10:00,
2013-05-19 19:20:00,49.9,47.7,30.28,SSW,207,0.0,2.0,92,0.00,,,0.00,Wunderground v.1.15,2013-05-19 23:20:00,
2013-05-19 19:25:00,49.9,48.0,30.27,SSW,205,0.0,2.0,93,0.00,,,0.00,Wunderground v.1.15,2013-05-19 23:25:00,
2013-05-19 19:30:00,49.8,47.9,30.27,WNW,303,0.0,0.0,93,0.00,,,0.00,Wunderground v.1.15,2013-05-19 23:30:00,
2013-05-19 19:35:00,49.9,48.0,30.27,NNW,342,0.0,1.0,93,0.00,,,0.00,Wunderground v.1.15,2013-05-19 23:35:00,
2013-05-19 19:40:00,49.8,47.9,30.27,North,352,0.0,0.0,93,0.00,,,0.00,Wunderground v.1.15,2013-05-19 23:40:00,
2013-05-19 19:45:00,49.7,47.8,30.27,North,352,0.0,0.0,93,0.00,,,0.00,Wunderground v.1.15,2013-05-19 23:45:00,
2013-05-19 19:50:00,49.7,48.0,30.27,East,80,0.0,0.0,94,0.00,,,0.00,Wunderground v.1.15,2013-05-19 23:50:00,
2013-05-19 19:55:00,49.7,48.0,30.26,East,80,0.0,0.0,94,0.00,,,0.00,Wunderground v.1.15,2013-05-19 23:55:00,
2013-05-19 20:00:00,49.7,48.0,30.26,East,80,0.0,0.0,94,0.00,,,0.00,Wunderground v.1.15,2013-05-20 00:00:00,
2013-05-19 20:05:00,49.7,48.0,30.27,East,81,0.0,1.0,94,0.00,,,0.00,Wunderground v.1.15,2013-05-20 00:05:00,
2013-05-19 20:10:00,49.7,48.0,30.26,East,80,0.0,1.0,94,0.00,,,0.00,Wunderground v.1.15,2013-05-20 00:10:00,
2013-05-19 20:15:00,49.7,48.0,30.26,East,80,0.0,1.0,94,0.00,,,0.00,Wunderground v.1.15,2013-05-20 00:15:00,
2013-05-19 20:25:00,49.8,48.1,30.27,East,81,0.0,1.0,94,0.00,,,0.00,Wunderground v.1.15,2013-05-20 00:25:00,
2013-05-19 20:30:00,49.8,48.1,30.27,East,80,0.0,0.0,94,0.00,,,0.00,Wunderground v.1.15,2013-05-20 00:30:00,
2013-05-19 20:35:00,49.9,48.5,30.26,East,82,0.0,0.0,95,0.00,,,0.00,Wunderground v.1.15,2013-05-20 00:35:00,
2013-05-19 20:40:00,49.9,48.5,30.26,East,82,0.0,0.0,95,0.00,,,0.00,Wunderground v.1.15,2013-05-20 00:40:00,
2013-05-19 20:45:00,49.9,48.5,30.26,East,82,0.0,0.0,95,0.00,,,0.00,Wunderground v.1.15,2013-05-20 00:45:00,
2013-05-19 20:50:00,49.9,48.5,30.27,East,82,0.0,0.0,95,0.00,,,0.00,Wunderground v.1.15,2013-05-20 00:50:00,
2013-05-19 20:55:00,50.0,48.6,30.27,East,82,0.0,0.0,95,0.00,,,0.00,Wunderground v.1.15,2013-05-20 00:55:00,
2013-05-19 21:00:00,50.0,48.6,30.27,East,82,0.0,0.0,95,0.00,,,0.00,Wunderground v.1.15,2013-05-20 01:00:00,
2013-05-19 21:05:00,50.0,48.6,30.27,East,82,0.0,1.0,95,0.00,,,0.00,Wunderground v.1.15,2013-05-20 01:05:00,
2013-05-19 21:10:00,50.0,48.6,30.27,East,82,0.0,1.0,95,0.00,,,0.00,Wunderground v.1.15,2013-05-20 01:10:00,
2013-05-19 21:15:00,50.0,48.6,30.27,East,82,0.0,1.0,95,0.00,,,0.00,Wunderground v.1.15,2013-05-20 01:15:00,
2013-05-19 21:20:00,50.1,48.7,30.27,East,82,0.0,1.0,95,0.00,,,0.00,Wunderground v.1.15,2013-05-20 01:20:00,
2013-05-19 21:30:00,50.0,48.6,30.27,East,82,0.0,0.0,95,0.00,,,0.00,Wunderground v.1.15,2013-05-20 01:30:00,
2013-05-19 21:35:00,50.1,48.7,30.27,East,82,0.0,0.0,95,0.00,,,0.00,Wunderground v.1.15,2013-05-20 01:35:00,
2013-05-19 21:40:00,50.0,48.6,30.27,East,82,0.0,0.0,95,0.00,,,0.00,Wunderground v.1.15,2013-05-20 01:40:00,
2013-05-19 21:45:00,50.1,48.7,30.27,East,82,0.0,0.0,95,0.00,,,0.00,Wunderground v.1.15,2013-05-20 01:45:00,
2013-05-19 21:50:00,50.1,48.7,30.27,East,82,0.0,0.0,95,0.00,,,0.00,Wunderground v.1.15,2013-05-20 01:50:00,
2013-05-19 21:55:00,50.1,48.7,30.27,East,82,0.0,0.0,95,0.00,,,0.00,Wunderground v.1.15,2013-05-20 01:55:00,
2013-05-19 22:00:00,50.1,48.7,30.27,East,82,0.0,0.0,95,0.00,,,0.00,Wunderground v.1.15,2013-05-20 02:00:00,
2013-05-19 22:05:00,50.1,48.7,30.27,East,82,0.0,1.0,95,0.00,,,0.00,Wunderground v.1.15,2013-05-20 02:05:00,
2013-05-19 22:10:00,50.1,48.7,30.27,East,82,0.0,1.0,95,0.00,,,0.01,Wunderground v.1.15,2013-05-20 02:10:00,
2013-05-19 22:15:00,50.1,49.0,30.27,SSE,159,0.0,1.0,96,0.00,,,0.01,Wunderground v.1.15,2013-05-20 02:15:00,
2013-05-19 22:20:00,50.2,49.1,30.27,South,173,0.0,1.0,96,0.06,,,0.02,Wunderground v.1.15,2013-05-20 02:20:00,
2013-05-19 22:30:00,50.1,49.0,30.27,South,173,0.0,0.0,96,0.09,,,0.03,Wunderground v.1.15,2013-05-20 02:30:00,
2013-05-19 22:40:00,50.1,49.0,30.27,South,173,0.0,0.0,96,0.05,,,0.04,Wunderground v.1.15,2013-05-20 02:40:00,
2013-05-19 22:45:00,50.0,48.9,30.27,South,173,0.0,0.0,96,0.05,,,0.04,Wunderground v.1.15,2013-05-20 02:45:00,
2013-05-19 22:50:00,50.1,49.0,30.26,South,173,0.0,0.0,96,0.04,,,0.04,Wunderground v.1.15,2013-05-20 02:50:00,
2013-05-19 22:55:00,50.0,48.9,30.26,South,173,0.0,0.0,96,0.04,,,0.05,Wunderground v.1.15,2013-05-20 02:55:00,
2013-05-19 23:00:00,50.0,48.9,30.26,South,173,0.0,0.0,96,0.04,,,0.05,Wunderground v.1.15,2013-05-20 03:00:00,
2013-05-19 23:10:00,49.9,48.8,30.25,South,172,0.0,1.0,96,0.00,,,0.05,Wunderground v.1.15,2013-05-20 03:10:00,
2013-05-19 23:15:00,50.0,48.9,30.25,South,172,0.0,1.0,96,0.00,,,0.06,Wunderground v.1.15,2013-05-20 03:15:00,
2013-05-19 23:20:00,49.9,48.8,30.25,South,172,0.0,1.0,96,0.00,,,0.06,Wunderground v.1.15,2013-05-20 03:20:00,
2013-05-19 23:25:00,49.9,48.8,30.25,South,173,0.0,1.0,96,0.00,,,0.06,Wunderground v.1.15,2013-05-20 03:25:00,
2013-05-19 23:30:00,49.9,48.8,30.25,South,173,0.0,0.0,96,0.00,,,0.06,Wunderground v.1.15,2013-05-20 03:30:00,
2013-05-19 23:35:00,49.8,48.7,30.24,SSE,157,0.0,0.0,96,0.00,,,0.07,Wunderground v.1.15,2013-05-20 03:35:00,
2013-05-19 23:45:00,49.8,48.7,30.24,SSE,157,0.0,0.0,96,0.00,,,0.07,Wunderground v.1.15,2013-05-20 03:45:00,
2013-05-19 23:50:00,49.8,48.7,30.24,SSE,156,0.0,0.0,96,0.00,,,0.07,Wunderground v.1.15,2013-05-20 03:50:00,
2013-05-19 23:55:00,49.8,48.7,30.23,SSE,157,0.0,0.0,96,0.00,,,0.07,Wunderground v.1.15,2013-05-20 03:55:00,